Time;durP1;ratioP1;P1;durP2;ratioP2;P2;SDS_P1;SDS_P2;PMS_P1;PMS_P2;Temp;Humidity;BMP_temperature;BMP_pressure;BME280_temperature;BME280_humidity;BME280_pressure;Samples;Min_cycle;Max_cycle;Signal;HPM_P1;HPM_P2
2023/01/06 00:03:41;;;;;;;4.75;3.10;;;8.20;99.90;;;;;;10281921;23;20091;-77
2023/01/06 00:07:43;;;;;;;4.45;2.72;;;8.20;99.90;;;;;;10282846;23;20009;-78
2023/01/06 00:11:43;;;;;;;3.90;2.67;;;8.20;99.90;;;;;;10282222;23;20008;-77
2023/01/06 00:15:44;;;;;;;3.92;2.60;;;8.50;99.90;;;;;;10283432;23;19996;-77
2023/01/06 00:19:44;;;;;;;4.82;3.10;;;8.40;99.90;;;;;;10282063;23;20013;-77
2023/01/06 00:23:45;;;;;;;4.05;2.38;;;8.30;99.90;;;;;;10283387;23;20012;-77
2023/01/06 00:27:45;;;;;;;4.88;3.17;;;8.30;99.90;;;;;;10281480;23;20390;-77
2023/01/06 00:31:46;;;;;;;4.13;2.78;;;8.50;99.90;;;;;;10281889;23;20095;-78
2023/01/06 00:35:46;;;;;;;3.72;2.58;;;8.50;99.90;;;;;;10281589;23;20447;-78
2023/01/06 00:39:47;;;;;;;4.65;2.80;;;8.40;99.90;;;;;;10283922;23;20088;-78
2023/01/06 00:43:47;;;;;;;4.10;2.38;;;8.20;99.90;;;;;;10282292;23;20005;-78
2023/01/06 00:47:48;;;;;;;3.03;2.28;;;8.30;99.90;;;;;;10282111;23;20047;-77
2023/01/06 00:51:48;;;;;;;2.70;2.05;;;8.10;99.90;;;;;;10283315;23;20623;-76
2023/01/06 00:55:49;;;;;;;3.35;2.30;;;7.70;99.90;;;;;;10283939;23;20078;-78
2023/01/06 00:59:49;;;;;;;2.63;1.95;;;7.30;99.90;;;;;;10286052;23;20447;-78
2023/01/06 01:03:50;;;;;;;4.88;1.92;;;7.00;99.90;;;;;;10283738;23;20016;-78
2023/01/06 01:07:50;;;;;;;3.25;1.90;;;7.00;99.90;;;;;;10284501;23;20038;-77
2023/01/06 01:12:09;;;;;;;3.08;2.20;;;6.60;99.90;;;;;;10281948;23;20019;-77
2023/01/06 01:16:09;;;;;;;4.82;1.90;;;6.60;99.90;;;;;;10286658;23;19997;-77
2023/01/06 01:20:10;;;;;;;3.05;2.00;;;6.60;99.90;;;;;;10284412;23;20028;-76
2023/01/06 01:24:11;;;;;;;2.63;1.92;;;6.30;99.90;;;;;;10282392;23;20092;-77
2023/01/06 01:28:11;;;;;;;3.00;1.80;;;6.00;99.90;;;;;;10285765;23;20064;-76
2023/01/06 01:32:12;;;;;;;3.13;2.05;;;6.20;99.90;;;;;;10285450;23;20063;-78
2023/01/06 01:36:15;;;;;;;2.75;1.92;;;6.10;99.90;;;;;;10285125;23;20048;-77
2023/01/06 01:40:16;;;;;;;3.83;2.70;;;5.80;99.90;;;;;;10285668;23;20015;-77
2023/01/06 01:44:53;;;;;;;3.83;2.30;;;6.00;99.90;;;;;;10283550;23;20005;-78
2023/01/06 01:48:58;;;;;;;5.90;2.50;;;6.00;99.90;;;;;;10282348;23;20012;-77
2023/01/06 01:53:10;;;;;;;4.25;2.72;;;5.60;99.90;;;;;;10281797;23;20562;-77
2023/01/06 01:57:25;;;;;;;3.47;2.40;;;5.30;99.90;;;;;;10281298;23;20015;-78
2023/01/06 02:01:27;;;;;;;3.65;2.30;;;5.40;99.90;;;;;;10283252;23;20035;-76
2023/01/06 02:05:29;;;;;;;4.38;2.53;;;5.60;99.90;;;;;;10282397;23;20027;-77
2023/01/06 02:09:50;;;;;;;4.72;2.70;;;5.60;99.90;;;;;;10284126;23;20039;-77
2023/01/06 02:14:16;;;;;;;3.67;2.50;;;5.60;99.90;;;;;;10283184;23;20009;-78
2023/01/06 02:18:30;;;;;;;3.75;2.50;;;5.30;99.90;;;;;;10280757;23;20001;-78
2023/01/06 02:22:36;;;;;;;3.40;2.30;;;5.10;99.90;;;;;;10280394;23;20015;-76
2023/01/06 02:27:01;;;;;;;3.53;2.50;;;4.90;99.90;;;;;;10280463;23;20379;-78
2023/01/06 02:31:30;;;;;;;4.90;2.70;;;4.90;99.90;;;;;;10280874;23;20016;-76
2023/01/06 02:35:55;;;;;;;4.80;2.67;;;5.20;99.90;;;;;;10280292;23;20012;-76
2023/01/06 02:40:16;;;;;;;3.17;2.20;;;5.10;99.90;;;;;;10280892;23;20016;-76
2023/01/06 02:44:47;;;;;;;4.68;2.50;;;5.10;99.90;;;;;;10282952;23;20106;-76
2023/01/06 02:49:09;;;;;;;4.28;2.42;;;5.10;99.90;;;;;;10281812;23;20009;-77
2023/01/06 02:53:13;;;;;;;3.63;2.35;;;4.90;99.90;;;;;;10282256;23;20506;-76
2023/01/06 02:57:34;;;;;;;4.07;2.40;;;4.90;99.90;;;;;;10283087;23;20316;-77
2023/01/06 03:01:41;;;;;;;4.93;2.90;;;5.20;99.90;;;;;;10282642;23;20233;-77
2023/01/06 03:05:47;;;;;;;4.20;2.50;;;5.10;99.90;;;;;;10282121;23;20044;-77
2023/01/06 03:09:51;;;;;;;4.15;2.60;;;5.10;99.90;;;;;;10282844;23;20324;-76
2023/01/06 03:14:03;;;;;;;3.17;2.35;;;4.80;99.90;;;;;;10283477;23;20031;-77
2023/01/06 03:18:04;;;;;;;4.18;2.45;;;4.50;99.90;;;;;;10281765;23;20145;-76
2023/01/06 03:22:08;;;;;;;7.68;3.47;;;4.70;99.90;;;;;;10283651;23;20009;-76
2023/01/06 03:26:09;;;;;;;5.50;3.10;;;4.90;99.90;;;;;;10282985;23;20013;-77
2023/01/06 03:30:10;;;;;;;1.88;1.50;;;4.90;99.90;;;;;;10283043;23;20016;-77
2023/01/06 03:34:30;;;;;;;2.67;1.55;;;4.70;99.90;;;;;;10283053;23;20371;-77
2023/01/06 03:38:55;;;;;;;2.75;1.88;;;4.20;99.90;;;;;;10283040;23;20012;-78
2023/01/06 03:43:17;;;;;;;3.20;2.10;;;3.80;99.90;;;;;;10282029;23;20028;-77
2023/01/06 03:47:36;;;;;;;2.22;1.73;;;3.70;99.90;;;;;;10282236;23;20011;-76
2023/01/06 03:51:46;;;;;;;2.85;1.85;;;3.50;99.90;;;;;;10282662;23;20001;-78
2023/01/06 03:55:52;;;;;;;3.25;2.20;;;3.30;99.90;;;;;;10281972;23;20321;-77
2023/01/06 03:59:57;;;;;;;3.63;2.20;;;3.30;99.90;;;;;;10284342;23;20005;-77
2023/01/06 04:04:00;;;;;;;3.92;2.15;;;3.30;99.90;;;;;;10282903;23;20020;-77
2023/01/06 04:08:00;;;;;;;5.47;2.30;;;3.70;99.90;;;;;;10282375;23;20494;-77
2023/01/06 04:16:20;;;;;;;6.40;3.55;;;4.30;99.90;;;;;;10284712;23;20020;-78
2023/01/06 04:20:27;;;;;;;3.35;2.25;;;4.30;99.90;;;;;;10284051;23;20080;-78
2023/01/06 04:24:28;;;;;;;4.85;2.42;;;4.40;99.90;;;;;;10282084;23;20055;-76
2023/01/06 04:28:29;;;;;;;2.83;1.77;;;4.00;99.90;;;;;;10281228;23;20447;-78
2023/01/06 04:32:29;;;;;;;2.97;2.10;;;3.50;99.90;;;;;;10285301;23;20099;-76
2023/01/06 04:36:30;;;;;;;3.20;1.83;;;3.20;99.90;;;;;;10284826;23;20000;-77
2023/01/06 04:40:31;;;;;;;3.20;1.95;;;3.00;99.90;;;;;;10286566;23;20005;-76
2023/01/06 04:44:31;;;;;;;2.28;1.88;;;2.80;99.90;;;;;;10283380;23;20461;-77
2023/01/06 04:48:32;;;;;;;3.60;1.90;;;2.60;99.90;;;;;;10283239;23;20009;-77
2023/01/06 04:52:32;;;;;;;2.78;1.75;;;2.60;99.90;;;;;;10282798;23;20008;-79
2023/01/06 04:56:33;;;;;;;2.83;1.90;;;2.50;99.90;;;;;;10282448;23;19996;-77
2023/01/06 05:00:33;;;;;;;2.42;1.67;;;2.30;99.90;;;;;;10283722;23;20020;-78
2023/01/06 05:04:34;;;;;;;2.55;1.55;;;2.20;99.90;;;;;;10282386;22;20398;-79
2023/01/06 05:08:39;;;;;;;1.95;1.52;;;2.30;99.90;;;;;;10351695;23;20008;-81
2023/01/06 05:12:40;;;;;;;2.42;1.60;;;2.40;99.90;;;;;;10343376;23;20151;-81
2023/01/06 05:16:40;;;;;;;3.78;2.20;;;2.60;99.90;;;;;;10315540;22;20008;-81
2023/01/06 05:20:41;;;;;;;2.60;1.90;;;2.70;99.90;;;;;;10294175;23;20032;-81
2023/01/06 05:24:41;;;;;;;3.35;2.17;;;2.50;99.90;;;;;;10294859;23;20530;-81
2023/01/06 05:28:42;;;;;;;3.78;2.13;;;2.40;99.90;;;;;;10294243;23;20016;-81
2023/01/06 05:32:42;;;;;;;2.88;1.77;;;2.40;99.90;;;;;;10290732;23;20004;-81
2023/01/06 05:36:43;;;;;;;2.85;1.58;;;2.20;99.90;;;;;;10290465;23;20343;-81
2023/01/06 05:40:43;;;;;;;3.10;2.00;;;2.00;99.90;;;;;;10290732;23;20013;-81
2023/01/06 05:44:44;;;;;;;2.50;1.55;;;2.00;99.90;;;;;;10294823;23;20135;-81
2023/01/06 05:48:44;;;;;;;3.83;2.17;;;2.00;99.90;;;;;;10296160;23;20018;-79
2023/01/06 05:52:45;;;;;;;3.28;1.95;;;1.80;99.90;;;;;;10297886;23;20035;-81
2023/01/06 05:56:45;;;;;;;3.95;2.33;;;1.90;99.90;;;;;;10297571;23;20004;-81
2023/01/06 06:00:46;;;;;;;2.28;1.52;;;2.30;99.90;;;;;;10299469;23;20004;-81
2023/01/06 06:04:47;;;;;;;2.28;1.73;;;2.20;99.90;;;;;;10295179;23;20024;-80
2023/01/06 06:08:48;;;;;;;1.98;1.30;;;2.00;99.90;;;;;;10296004;23;20008;-81
2023/01/06 06:12:52;;;;;;;1.90;1.40;;;1.80;99.90;;;;;;10292504;23;20383;-81
2023/01/06 06:16:52;;;;;;;2.40;1.30;;;1.60;99.90;;;;;;10294267;23;20000;-81
2023/01/06 06:20:59;;;;;;;3.08;1.45;;;1.60;99.90;;;;;;10289764;23;20013;-81
2023/01/06 06:25:00;;;;;;;4.25;1.98;;;1.50;99.90;;;;;;10290327;23;20020;-81
2023/01/06 06:29:00;;;;;;;1.75;1.23;;;1.40;99.90;;;;;;10291261;23;20012;-82
2023/01/06 06:33:01;;;;;;;1.83;1.42;;;1.40;99.90;;;;;;10289682;23;20005;-82
2023/01/06 06:37:02;;;;;;;3.70;1.85;;;1.30;99.90;;;;;;10289374;23;20005;-82
2023/01/06 06:41:02;;;;;;;4.40;1.92;;;1.20;99.90;;;;;;10289274;23;20013;-82
2023/01/06 06:45:03;;;;;;;3.85;1.58;;;1.20;99.90;;;;;;10289713;23;20501;-82
2023/01/06 06:49:04;;;;;;;3.58;2.17;;;1.10;99.90;;;;;;10290184;23;20039;-81
2023/01/06 06:53:05;;;;;;;3.10;2.03;;;1.20;99.90;;;;;;10289209;23;20000;-79
2023/01/06 06:57:05;;;;;;;3.65;1.98;;;1.30;99.90;;;;;;10286947;23;20802;-81
2023/01/06 07:01:08;;;;;;;3.53;2.05;;;1.20;99.90;;;;;;10290341;23;20008;-81
2023/01/06 07:05:08;;;;;;;4.72;2.42;;;1.00;99.90;;;;;;10285921;23;20019;-81
2023/01/06 07:09:09;;;;;;;4.90;2.67;;;1.00;99.90;;;;;;10290365;23;20095;-81
2023/01/06 07:13:09;;;;;;;9.77;5.20;;;1.00;99.90;;;;;;10291714;23;20051;-81
2023/01/06 07:17:10;;;;;;;10.30;5.95;;;1.10;99.90;;;;;;10288496;23;20680;-81
2023/01/06 07:21:10;;;;;;;12.15;6.60;;;1.10;99.90;;;;;;10288837;23;20043;-81
2023/01/06 07:25:11;;;;;;;5.85;3.50;;;1.10;99.90;;;;;;10290772;23;20416;-81
2023/01/06 07:29:11;;;;;;;9.02;4.47;;;1.00;99.90;;;;;;10294000;23;20423;-81
2023/01/06 07:33:12;;;;;;;6.78;3.15;;;0.90;99.90;;;;;;10295352;23;20004;-81
2023/01/06 07:37:13;;;;;;;10.15;4.47;;;0.80;99.90;;;;;;10293493;23;20001;-81
2023/01/06 07:41:13;;;;;;;7.70;3.75;;;1.10;99.90;;;;;;10289970;23;20438;-81
2023/01/06 07:45:14;;;;;;;3.45;2.20;;;1.70;99.90;;;;;;10289497;23;20067;-81
2023/01/06 07:49:14;;;;;;;6.90;3.60;;;2.20;99.90;;;;;;10293784;23;20069;-80
2023/01/06 07:53:15;;;;;;;9.82;4.53;;;2.60;99.90;;;;;;10293539;23;20013;-81
2023/01/06 07:57:15;;;;;;;7.00;3.95;;;2.80;99.90;;;;;;10294294;23;20043;-81
2023/01/06 08:01:16;;;;;;;7.70;4.05;;;3.00;99.90;;;;;;10294750;23;20015;-81
2023/01/06 08:05:16;;;;;;;7.25;4.35;;;3.00;99.90;;;;;;10295692;23;20013;-81
2023/01/06 08:09:17;;;;;;;8.60;4.55;;;3.40;99.90;;;;;;10295421;23;20077;-81
2023/01/06 08:13:17;;;;;;;7.32;4.43;;;4.00;99.90;;;;;;10297478;23;20041;-81
2023/01/06 08:17:18;;;;;;;8.13;4.40;;;4.40;99.90;;;;;;10287817;23;20002;-84
2023/01/06 08:21:18;;;;;;;11.07;3.92;;;4.70;99.90;;;;;;10284418;23;20008;-84
2023/01/06 08:25:19;;;;;;;6.53;3.75;;;5.20;99.90;;;;;;10284134;23;20417;-85
2023/01/06 08:29:20;;;;;;;6.55;3.10;;;5.60;99.90;;;;;;10284718;23;20446;-82
2023/01/06 08:33:22;;;;;;;9.07;3.65;;;5.90;99.90;;;;;;10284713;23;20453;-84
2023/01/06 08:37:23;;;;;;;4.25;2.33;;;6.10;99.90;;;;;;10283570;23;20004;-83
2023/01/06 08:41:24;;;;;;;8.38;4.53;;;6.30;99.90;;;;;;10284294;23;20004;-84
2023/01/06 08:45:24;;;;;;;6.15;3.75;;;6.40;99.90;;;;;;10287221;23;19997;-82
2023/01/06 08:49:25;;;;;;;7.38;4.00;;;6.50;99.90;;;;;;10289534;23;20036;-83
2023/01/06 08:53:25;;;;;;;8.30;4.47;;;6.70;99.90;;;;;;10286866;23;20009;-84
2023/01/06 08:57:26;;;;;;;6.63;4.00;;;6.80;99.90;;;;;;10284857;23;20088;-84
2023/01/06 09:01:29;;;;;;;6.93;4.32;;;6.90;99.90;;;;;;10284882;23;20008;-82
2023/01/06 09:05:30;;;;;;;7.28;4.07;;;7.10;99.90;;;;;;10283659;23;20044;-85
2023/01/06 09:09:30;;;;;;;5.38;3.88;;;7.40;99.90;;;;;;10285015;23;20435;-83
2023/01/06 09:13:31;;;;;;;6.85;3.63;;;7.50;99.90;;;;;;10284451;23;20111;-85
2023/01/06 09:17:32;;;;;;;6.13;3.35;;;7.60;99.90;;;;;;10286161;23;20008;-85
2023/01/06 09:21:32;;;;;;;6.75;4.10;;;7.70;99.90;;;;;;10314347;22;20009;-84
2023/01/06 09:25:33;;;;;;;7.53;4.10;;;7.70;99.90;;;;;;10302802;23;20051;-84
2023/01/06 09:29:33;;;;;;;7.28;3.90;;;7.90;99.90;;;;;;10283895;23;20007;-86
2023/01/06 09:33:43;;;;;;;6.53;3.70;;;8.00;99.90;;;;;;10281652;23;20008;-84
2023/01/06 09:37:44;;;;;;;5.47;3.28;;;8.00;99.90;;;;;;10283993;23;20000;-85
2023/01/06 09:42:23;;;;;;;4.53;2.70;;;8.20;99.90;;;;;;10284670;23;20080;-85
2023/01/06 09:46:30;;;;;;;2.30;1.92;;;8.10;99.90;;;;;;10283550;23;20005;-86
2023/01/06 09:50:40;;;;;;;3.30;2.33;;;8.30;99.90;;;;;;10285097;23;20071;-84
2023/01/06 09:54:51;;;;;;;3.20;1.80;;;8.60;99.90;;;;;;10287049;23;20242;-84
2023/01/06 09:58:59;;;;;;;3.05;1.83;;;8.70;99.90;;;;;;10287421;23;20008;-84
2023/01/06 10:03:00;;;;;;;2.47;1.70;;;8.80;99.90;;;;;;10287769;23;20004;-84
2023/01/06 10:07:23;;;;;;;2.70;1.88;;;9.10;99.90;;;;;;10286522;23;20024;-87
2023/01/06 10:11:24;;;;;;;2.97;2.10;;;9.00;99.90;;;;;;10286007;23;20063;-83
2023/01/06 10:15:46;;;;;;;2.78;1.55;;;8.90;99.90;;;;;;10284858;23;20401;-85
2023/01/06 10:20:24;;;;;;;4.45;2.30;;;8.90;99.90;;;;;;10286576;23;20083;-85
2023/01/06 10:24:53;;;;;;;3.55;1.83;;;9.00;99.90;;;;;;10285881;23;20004;-84
2023/01/06 10:29:00;;;;;;;3.25;2.28;;;9.10;99.90;;;;;;10285618;23;20380;-85
2023/01/06 10:33:01;;;;;;;2.70;1.85;;;9.20;99.90;;;;;;10284033;23;20501;-85
2023/01/06 10:37:24;;;;;;;3.53;2.30;;;9.30;99.90;;;;;;10286286;23;20012;-85
2023/01/06 10:41:42;;;;;;;4.28;2.38;;;9.40;99.90;;;;;;10287380;23;20011;-84
2023/01/06 10:45:44;;;;;;;2.97;2.15;;;9.60;99.90;;;;;;10286069;23;20434;-84
2023/01/06 10:49:45;;;;;;;3.97;2.17;;;9.80;99.90;;;;;;10285951;23;20012;-85
2023/01/06 10:53:45;;;;;;;3.42;2.20;;;9.90;99.90;;;;;;10285724;23;20435;-85
2023/01/06 10:57:47;;;;;;;2.53;1.83;;;10.20;99.90;;;;;;10286091;23;20008;-85
2023/01/06 11:01:53;;;;;;;2.83;1.90;;;10.30;99.90;;;;;;10285725;23;20009;-85
2023/01/06 11:06:05;;;;;;;3.45;2.08;;;10.60;99.90;;;;;;10296887;22;20012;-81
2023/01/06 11:10:45;;;;;;;1.27;0.80;;;10.80;99.90;;;;;;10334194;23;20023;-82
2023/01/06 11:15:01;;;;;;;2.58;1.60;;;11.20;99.90;;;;;;10315350;23;20019;-81
2023/01/06 11:19:05;;;;;;;2.42;1.77;;;11.70;99.90;;;;;;10284093;23;20471;-83
2023/01/06 11:23:32;;;;;;;2.53;1.60;;;12.60;99.90;;;;;;10281555;23;20729;-82
2023/01/06 11:27:33;;;;;;;2.65;1.80;;;12.80;99.90;;;;;;10279704;23;20023;-81
2023/01/06 11:31:34;;;;;;;3.35;1.95;;;13.10;99.90;;;;;;10283029;23;20597;-81
2023/01/06 11:35:34;;;;;;;2.45;1.90;;;13.80;99.90;;;;;;10281273;23;20008;-81
2023/01/06 11:39:36;;;;;;;2.45;1.70;;;14.10;99.90;;;;;;10283406;23;20347;-81
2023/01/06 11:43:38;;;;;;;3.28;1.95;;;13.70;99.90;;;;;;10281960;23;20005;-82
2023/01/06 11:47:38;;;;;;;2.63;1.90;;;13.30;99.90;;;;;;10283102;23;20005;-81
2023/01/06 11:51:41;;;;;;;2.38;1.70;;;13.80;99.90;;;;;;10283137;23;20100;-83
2023/01/06 11:55:55;;;;;;;2.05;1.45;;;14.40;99.90;;;;;;10286107;23;20328;-81
2023/01/06 12:00:23;;;;;;;2.88;1.98;;;13.80;99.90;;;;;;10284845;23;20343;-81
2023/01/06 12:04:32;;;;;;;4.55;3.00;;;12.10;99.90;;;;;;10285486;23;20001;-81
2023/01/06 12:08:37;;;;;;;5.65;2.85;;;11.40;99.90;;;;;;10284372;23;20024;-81
2023/01/06 12:12:38;;;;;;;5.30;3.58;;;10.90;99.90;;;;;;10283123;23;20336;-82
2023/01/06 12:16:54;;;;;;;3.97;2.80;;;10.30;99.90;;;;;;10283455;23;20005;-80
2023/01/06 12:20:59;;;;;;;3.15;1.60;;;10.20;99.90;;;;;;10285840;23;20335;-81
2023/01/06 12:25:01;;;;;;;10.05;5.93;;;10.60;99.90;;;;;;10285954;23;20089;-80
2023/01/06 12:29:04;;;;;;;4.20;2.92;;;11.10;99.90;;;;;;10285085;23;20424;-82
2023/01/06 12:33:29;;;;;;;6.95;3.92;;;11.70;99.90;;;;;;10290867;23;20015;-82
2023/01/06 12:37:52;;;;;;;5.95;3.70;;;12.10;99.90;;;;;;10266937;23;20009;-81
2023/01/06 12:41:58;;;;;;;2.55;1.80;;;11.80;99.90;;;;;;10285470;23;20009;-80
2023/01/06 12:46:22;;;;;;;2.60;1.58;;;11.60;99.90;;;;;;10286431;23;20067;-80
2023/01/06 12:50:45;;;;;;;2.40;1.52;;;11.50;99.90;;;;;;10284520;23;20009;-83
2023/01/06 12:54:51;;;;;;;2.97;1.88;;;11.30;99.90;;;;;;10285956;23;20063;-82
2023/01/06 12:59:26;;;;;;;4.43;2.92;;;10.90;99.90;;;;;;10284742;23;20560;-82
2023/01/06 13:03:36;;;;;;;4.45;2.22;;;10.80;99.90;;;;;;10287581;23;20012;-82
2023/01/06 13:08:04;;;;;;;3.25;2.38;;;10.90;99.90;;;;;;10284066;23;20496;-81
2023/01/06 13:12:17;;;;;;;3.00;2.05;;;10.80;99.90;;;;;;10282674;23;20700;-80
2023/01/06 13:16:26;;;;;;;3.80;1.77;;;10.90;99.90;;;;;;10283001;23;20011;-80
2023/01/06 13:20:45;;;;;;;8.47;5.00;;;10.70;99.90;;;;;;10283964;23;20008;-82
2023/01/06 13:25:02;;;;;;;3.88;2.45;;;10.60;99.90;;;;;;10284927;23;20035;-82
2023/01/06 13:29:30;;;;;;;1.90;1.70;;;10.80;99.90;;;;;;10284973;23;20489;-82
2023/01/06 13:33:47;;;;;;;3.00;2.08;;;10.50;99.90;;;;;;10283549;23;20012;-81
2023/01/06 13:38:09;;;;;;;3.67;2.03;;;10.30;99.90;;;;;;10283014;23;20347;-81
2023/01/06 13:42:16;;;;;;;3.92;2.30;;;10.20;99.90;;;;;;10284664;23;20019;-81
2023/01/06 13:46:19;;;;;;;4.20;3.10;;;10.10;99.90;;;;;;10281616;23;20009;-80
2023/01/06 13:50:22;;;;;;;6.55;3.92;;;10.10;99.90;;;;;;10282001;23;20316;-81
2023/01/06 13:54:41;;;;;;;4.90;3.33;;;10.10;99.90;;;;;;10281789;23;20048;-82
2023/01/06 13:58:43;;;;;;;2.05;1.30;;;10.00;99.90;;;;;;10281555;23;20505;-81
2023/01/06 14:02:49;;;;;;;2.65;1.73;;;10.10;99.90;;;;;;10281240;23;20008;-82
2023/01/06 14:06:50;;;;;;;1.65;1.25;;;9.90;99.90;;;;;;10280670;23;20103;-80
2023/01/06 14:11:01;;;;;;;2.17;1.48;;;9.70;99.90;;;;;;10281148;23;20104;-81
2023/01/06 14:15:22;;;;;;;3.03;1.85;;;9.70;99.90;;;;;;10279886;23;20402;-80
2023/01/06 14:19:30;;;;;;;2.50;1.70;;;9.60;99.90;;;;;;10277088;23;20001;-81
2023/01/06 14:23:33;;;;;;;3.42;1.48;;;9.50;99.90;;;;;;10277835;23;20008;-81
2023/01/06 14:27:45;;;;;;;2.88;1.52;;;9.50;99.90;;;;;;10278803;23;20458;-79
2023/01/06 14:31:46;;;;;;;2.15;1.27;;;9.50;99.90;;;;;;10278816;23;20012;-80
2023/01/06 14:35:47;;;;;;;2.25;1.50;;;9.40;99.90;;;;;;10279390;23;20012;-79
2023/01/06 14:39:50;;;;;;;2.22;1.30;;;9.30;99.90;;;;;;10283514;23;20008;-80
2023/01/06 14:44:00;;;;;;;2.35;1.52;;;9.30;99.90;;;;;;10282254;23;20012;-80
2023/01/06 14:48:12;;;;;;;2.60;1.60;;;9.40;99.90;;;;;;10283034;23;20043;-81
2023/01/06 14:52:19;;;;;;;2.72;1.75;;;9.40;99.90;;;;;;10284119;23;20591;-80
2023/01/06 14:56:23;;;;;;;2.63;1.58;;;9.20;99.90;;;;;;10283765;23;20005;-79
2023/01/06 15:00:32;;;;;;;2.17;1.40;;;9.30;99.90;;;;;;10284929;23;20013;-81
2023/01/06 15:04:34;;;;;;;2.38;1.63;;;9.20;99.90;;;;;;10285341;23;20075;-80
2023/01/06 15:08:34;;;;;;;3.25;1.85;;;9.20;99.90;;;;;;10283900;23;20017;-80
2023/01/06 15:12:35;;;;;;;3.58;1.90;;;9.10;99.90;;;;;;10285201;23;20135;-79
2023/01/06 15:16:40;;;;;;;3.78;1.98;;;9.10;99.90;;;;;;10283448;23;19997;-80
2023/01/06 15:20:42;;;;;;;2.78;1.85;;;9.10;99.90;;;;;;10284267;23;20013;-80
2023/01/06 15:24:42;;;;;;;2.95;1.92;;;8.90;99.90;;;;;;10285914;23;20001;-80
2023/01/06 15:28:58;;;;;;;2.28;1.70;;;8.90;99.90;;;;;;10284454;23;20543;-80
2023/01/06 15:33:00;;;;;;;2.40;1.80;;;8.80;99.90;;;;;;10286429;23;20347;-80
2023/01/06 15:37:03;;;;;;;2.47;1.80;;;8.90;99.90;;;;;;10284021;23;20380;-79
2023/01/06 15:41:04;;;;;;;4.90;3.00;;;8.90;99.90;;;;;;10286326;23;20008;-80
2023/01/06 15:45:06;;;;;;;4.15;3.03;;;8.80;99.90;;;;;;10283567;23;20367;-80
2023/01/06 15:49:35;;;;;;;4.90;3.65;;;8.80;99.90;;;;;;10281676;23;20319;-81
2023/01/06 15:53:35;;;;;;;7.00;3.28;;;8.70;99.90;;;;;;10282211;23;20004;-80
2023/01/06 15:57:38;;;;;;;9.50;5.53;;;8.60;99.90;;;;;;10281321;23;20426;-79
2023/01/06 16:01:48;;;;;;;3.55;2.58;;;8.70;99.90;;;;;;10281124;23;20107;-79
2023/01/06 16:05:50;;;;;;;20.98;10.50;;;8.70;99.90;;;;;;10280770;23;20028;-81
2023/01/06 16:09:50;;;;;;;36.40;18.88;;;8.70;99.90;;;;;;10282957;23;20043;-80
2023/01/06 16:13:54;;;;;;;9.48;6.35;;;8.70;99.90;;;;;;10282663;23;20005;-81
2023/01/06 16:17:54;;;;;;;6.13;3.72;;;8.60;99.90;;;;;;10281302;23;20008;-79
2023/01/06 16:21:56;;;;;;;4.75;2.65;;;8.50;99.90;;;;;;10283412;23;20339;-81
2023/01/06 16:26:13;;;;;;;3.20;2.22;;;8.40;99.90;;;;;;10281828;23;20063;-81
2023/01/06 16:30:13;;;;;;;3.95;2.33;;;8.40;99.90;;;;;;10284288;23;20011;-81
2023/01/06 16:34:15;;;;;;;17.10;6.75;;;8.50;99.90;;;;;;10282930;23;20005;-81
2023/01/06 16:38:16;;;;;;;4.38;2.38;;;8.40;99.90;;;;;;10282076;23;20012;-81
2023/01/06 16:42:39;;;;;;;3.92;2.20;;;8.40;99.90;;;;;;10283367;23;20455;-81
2023/01/06 16:46:39;;;;;;;2.65;1.98;;;8.40;99.90;;;;;;10283011;23;20447;-81
2023/01/06 16:50:43;;;;;;;2.60;2.10;;;8.20;99.90;;;;;;10283047;23;20004;-80
2023/01/06 16:54:51;;;;;;;3.70;2.22;;;8.10;99.90;;;;;;10282870;23;20023;-80
2023/01/06 16:58:54;;;;;;;3.28;2.15;;;8.30;99.90;;;;;;10284340;23;20032;-80
2023/01/06 17:02:54;;;;;;;4.20;2.63;;;8.30;99.90;;;;;;10283168;23;20095;-81
2023/01/06 17:06:56;;;;;;;4.53;2.42;;;8.30;99.90;;;;;;10290817;22;20024;-85
2023/01/06 17:11:00;;;;;;;2.50;1.55;;;8.50;99.90;;;;;;10332003;22;20011;-85
2023/01/06 17:15:01;;;;;;;2.60;1.88;;;8.40;99.90;;;;;;10333612;22;20039;-85
2023/01/06 17:19:18;;;;;;;2.13;1.42;;;8.50;99.90;;;;;;10287403;22;20048;-85
2023/01/06 17:23:18;;;;;;;1.85;1.33;;;8.60;99.90;;;;;;10281252;23;20008;-85
2023/01/06 17:27:25;;;;;;;6.68;2.58;;;8.70;99.90;;;;;;10281697;23;20099;-85
2023/01/06 17:31:33;;;;;;;15.00;7.10;;;8.60;99.90;;;;;;10283809;23;20466;-85
2023/01/06 17:35:34;;;;;;;20.60;8.00;;;8.60;99.90;;;;;;10282541;23;20009;-85
2023/01/06 17:39:37;;;;;;;9.80;5.53;;;8.60;99.90;;;;;;10282833;23;20097;-85
2023/01/06 17:43:38;;;;;;;9.20;4.28;;;8.50;99.90;;;;;;10280700;23;20060;-85
2023/01/06 17:47:51;;;;;;;15.20;6.32;;;8.50;99.90;;;;;;10280974;23;20009;-85
2023/01/06 17:51:53;;;;;;;2.42;1.60;;;8.50;99.90;;;;;;10282764;23;20008;-85
2023/01/06 17:55:54;;;;;;;2.50;1.42;;;8.40;99.90;;;;;;10282185;23;20091;-85
2023/01/06 17:59:55;;;;;;;2.30;1.58;;;8.40;99.90;;;;;;10282292;23;20032;-85
2023/01/06 18:03:56;;;;;;;2.22;1.65;;;8.30;99.90;;;;;;10281859;23;20009;-85
2023/01/06 18:08:11;;;;;;;3.22;1.80;;;8.40;99.90;;;;;;10281376;23;20012;-85
2023/01/06 18:12:14;;;;;;;3.35;1.85;;;8.20;99.90;;;;;;10283993;23;20328;-85
2023/01/06 18:16:33;;;;;;;1.80;1.42;;;8.30;99.90;;;;;;10285024;23;20055;-85
2023/01/06 18:20:34;;;;;;;1.88;1.67;;;8.40;99.90;;;;;;10285989;23;20087;-86
2023/01/06 18:24:37;;;;;;;2.40;1.92;;;8.30;99.90;;;;;;10285033;23;20105;-85
2023/01/06 18:28:37;;;;;;;2.40;1.92;;;8.40;99.90;;;;;;10286943;23;20119;-86
2023/01/06 18:32:41;;;;;;;2.63;2.10;;;8.20;99.90;;;;;;10285867;23;20005;-85
2023/01/06 18:36:45;;;;;;;2.60;1.95;;;8.10;99.90;;;;;;10286024;23;20095;-86
2023/01/06 18:40:46;;;;;;;2.13;1.80;;;8.10;99.90;;;;;;10286291;23;20009;-86
2023/01/06 18:44:46;;;;;;;2.75;2.10;;;8.20;99.90;;;;;;10285456;23;20031;-86
2023/01/06 18:48:47;;;;;;;2.53;1.85;;;8.20;99.90;;;;;;10285240;23;20047;-87
2023/01/06 18:52:49;;;;;;;3.75;2.28;;;8.10;99.90;;;;;;10285216;23;20005;-86
2023/01/06 18:56:50;;;;;;;3.28;2.22;;;8.10;99.90;;;;;;10285150;23;20452;-87
2023/01/06 19:00:52;;;;;;;3.47;2.33;;;8.10;99.90;;;;;;10285310;23;20012;-87
2023/01/06 19:04:53;;;;;;;5.30;2.40;;;8.00;99.90;;;;;;10284642;23;20012;-87
2023/01/06 19:08:54;;;;;;;10.63;5.10;;;8.10;99.90;;;;;;10284194;23;20013;-86
2023/01/06 19:12:58;;;;;;;64.43;22.55;;;8.20;99.90;;;;;;10299912;23;20013;-86
2023/01/06 19:16:59;;;;;;;5.72;3.67;;;8.20;99.90;;;;;;10285572;23;20555;-87
2023/01/06 19:21:02;;;;;;;5.75;3.88;;;8.20;99.90;;;;;;10284844;23;20004;-87
2023/01/06 19:25:12;;;;;;;5.97;3.75;;;8.20;99.90;;;;;;10284173;23;20340;-87
2023/01/06 19:29:14;;;;;;;5.28;3.72;;;8.10;99.90;;;;;;10285099;23;20012;-87
2023/01/06 19:33:22;;;;;;;3.97;2.85;;;8.00;99.90;;;;;;10285407;23;20009;-87
2023/01/06 19:37:22;;;;;;;6.15;2.97;;;8.10;99.90;;;;;;10284421;23;20399;-87
2023/01/06 19:41:28;;;;;;;4.38;2.95;;;8.20;99.90;;;;;;10285598;23;20051;-87
2023/01/06 19:45:30;;;;;;;6.93;3.67;;;8.00;99.90;;;;;;10284796;23;20005;-87
2023/01/06 19:49:38;;;;;;;4.68;2.58;;;8.00;99.90;;;;;;10284174;23;20055;-86
2023/01/06 19:53:48;;;;;;;5.25;3.28;;;8.30;99.90;;;;;;10284658;23;20035;-86
2023/01/06 19:58:00;;;;;;;8.48;4.78;;;8.00;99.90;;;;;;10284849;23;20016;-80
2023/01/06 20:02:07;;;;;;;7.65;4.53;;;7.90;99.90;;;;;;10282938;23;20504;-82
2023/01/06 20:06:08;;;;;;;3.85;2.60;;;7.90;99.90;;;;;;10282391;23;20040;-81
2023/01/06 20:10:09;;;;;;;3.58;2.50;;;8.00;99.90;;;;;;10283268;23;20009;-81
2023/01/06 20:14:09;;;;;;;2.92;2.00;;;7.70;99.90;;;;;;10285093;23;20051;-82
2023/01/06 20:18:10;;;;;;;5.25;3.35;;;7.70;99.90;;;;;;10283322;23;20003;-81
2023/01/06 20:22:10;;;;;;;3.53;2.55;;;7.60;99.90;;;;;;10283170;23;20039;-81
2023/01/06 20:26:11;;;;;;;3.47;2.70;;;7.50;99.90;;;;;;10283666;23;20350;-82
2023/01/06 20:30:11;;;;;;;2.85;2.28;;;7.50;99.90;;;;;;10283872;23;20012;-82
2023/01/06 20:34:12;;;;;;;3.58;2.33;;;7.60;99.90;;;;;;10283836;23;20358;-82
2023/01/06 20:38:13;;;;;;;3.15;2.10;;;7.50;99.90;;;;;;10283496;23;20001;-82
2023/01/06 20:42:14;;;;;;;4.85;2.65;;;7.40;99.90;;;;;;10284461;23;20008;-82
2023/01/06 20:46:14;;;;;;;6.10;2.80;;;7.50;99.90;;;;;;10283574;23;20451;-82
2023/01/06 20:50:15;;;;;;;3.92;2.03;;;7.30;99.90;;;;;;10283802;23;20091;-83
2023/01/06 20:54:15;;;;;;;3.42;2.53;;;7.30;99.90;;;;;;10283835;23;20092;-82
2023/01/06 20:58:16;;;;;;;4.07;2.60;;;7.10;99.90;;;;;;10282801;23;20009;-81
2023/01/06 21:02:17;;;;;;;3.97;2.85;;;7.20;99.90;;;;;;10284589;23;20008;-82
2023/01/06 21:06:18;;;;;;;3.53;2.35;;;7.10;99.90;;;;;;10284011;23;20005;-82
2023/01/06 21:10:19;;;;;;;4.55;2.80;;;7.10;99.90;;;;;;10283524;23;20087;-82
2023/01/06 21:14:20;;;;;;;4.15;2.53;;;7.10;99.90;;;;;;10283661;23;20004;-81
2023/01/06 21:18:20;;;;;;;3.05;2.13;;;7.10;99.90;;;;;;10283592;23;20005;-82
2023/01/06 21:22:21;;;;;;;3.33;2.00;;;7.20;99.90;;;;;;10282968;23;20386;-82